sensor_id;sensor_type;location;lat;lon;timestamp;P1;durP1;ratioP1;P2;durP2;ratioP2
40501;SDS011;29631;49.168;9.848;2022-11-20T00:01:05;2.95;;;2.78;;
40501;SDS011;29631;49.168;9.848;2022-11-20T00:03:42;2.78;;;2.67;;
40501;SDS011;29631;49.168;9.848;2022-11-20T00:06:09;2.50;;;2.40;;
40501;SDS011;29631;49.168;9.848;2022-11-20T00:08:37;2.63;;;2.53;;
40501;SDS011;29631;49.168;9.848;2022-11-20T00:11:06;2.90;;;2.70;;
40501;SDS011;29631;49.168;9.848;2022-11-20T00:13:38;3.40;;;3.20;;
40501;SDS011;29631;49.168;9.848;2022-11-20T00:16:05;3.80;;;3.50;;
40501;SDS011;29631;49.168;9.848;2022-11-20T00:18:34;3.97;;;3.78;;
40501;SDS011;29631;49.168;9.848;2022-11-20T00:21:04;4.00;;;3.70;;
40501;SDS011;29631;49.168;9.848;2022-11-20T00:23:32;3.15;;;2.95;;
40501;SDS011;29631;49.168;9.848;2022-11-20T00:26:02;3.10;;;2.90;;
40501;SDS011;29631;49.168;9.848;2022-11-20T00:28:32;2.88;;;2.78;;
40501;SDS011;29631;49.168;9.848;2022-11-20T00:31:09;2.83;;;2.72;;
40501;SDS011;29631;49.168;9.848;2022-11-20T00:33:38;2.75;;;2.65;;
40501;SDS011;29631;49.168;9.848;2022-11-20T00:36:14;2.90;;;2.80;;
40501;SDS011;29631;49.168;9.848;2022-11-20T00:38:42;3.38;;;3.17;;
40501;SDS011;29631;49.168;9.848;2022-11-20T00:41:09;3.60;;;3.30;;
40501;SDS011;29631;49.168;9.848;2022-11-20T00:43:38;2.97;;;2.78;;
40501;SDS011;29631;49.168;9.848;2022-11-20T00:46:08;3.42;;;3.13;;
40501;SDS011;29631;49.168;9.848;2022-11-20T00:48:41;3.25;;;3.05;;
40501;SDS011;29631;49.168;9.848;2022-11-20T00:51:07;2.80;;;2.60;;
40501;SDS011;29631;49.168;9.848;2022-11-20T00:53:33;3.08;;;2.90;;
40501;SDS011;29631;49.168;9.848;2022-11-20T00:56:03;2.65;;;2.55;;
40501;SDS011;29631;49.168;9.848;2022-11-20T00:58:33;2.67;;;2.58;;
40501;SDS011;29631;49.168;9.848;2022-11-20T01:01:03;2.40;;;2.30;;
40501;SDS011;29631;49.168;9.848;2022-11-20T01:03:44;2.38;;;2.28;;
40501;SDS011;29631;49.168;9.848;2022-11-20T01:06:23;2.58;;;2.47;;
40501;SDS011;29631;49.168;9.848;2022-11-20T01:08:59;3.00;;;2.80;;
40501;SDS011;29631;49.168;9.848;2022-11-20T01:11:33;2.85;;;2.65;;
40501;SDS011;29631;49.168;9.848;2022-11-20T01:14:03;2.90;;;2.72;;
40501;SDS011;29631;49.168;9.848;2022-11-20T01:16:35;2.85;;;2.65;;
40501;SDS011;29631;49.168;9.848;2022-11-20T01:19:04;3.08;;;2.88;;
40501;SDS011;29631;49.168;9.848;2022-11-20T01:21:35;3.67;;;3.35;;
40501;SDS011;29631;49.168;9.848;2022-11-20T01:24:04;3.58;;;3.30;;
40501;SDS011;29631;49.168;9.848;2022-11-20T01:26:34;3.38;;;3.17;;
40501;SDS011;29631;49.168;9.848;2022-11-20T01:29:03;3.22;;;3.03;;
40501;SDS011;29631;49.168;9.848;2022-11-20T01:31:30;3.80;;;3.50;;
40501;SDS011;29631;49.168;9.848;2022-11-20T01:34:02;4.03;;;3.72;;
40501;SDS011;29631;49.168;9.848;2022-11-20T01:36:31;4.22;;;3.92;;
40501;SDS011;29631;49.168;9.848;2022-11-20T01:39:00;4.07;;;3.78;;
40501;SDS011;29631;49.168;9.848;2022-11-20T01:41:29;4.15;;;3.75;;
40501;SDS011;29631;49.168;9.848;2022-11-20T01:44:17;4.20;;;3.90;;
40501;SDS011;29631;49.168;9.848;2022-11-20T01:46:56;4.35;;;4.05;;
40501;SDS011;29631;49.168;9.848;2022-11-20T01:49:40;5.00;;;4.60;;
40501;SDS011;29631;49.168;9.848;2022-11-20T01:52:18;4.82;;;4.43;;
40501;SDS011;29631;49.168;9.848;2022-11-20T01:54:54;4.60;;;4.20;;
40501;SDS011;29631;49.168;9.848;2022-11-20T01:57:27;5.25;;;4.68;;
40501;SDS011;29631;49.168;9.848;2022-11-20T01:59:57;4.45;;;4.05;;
40501;SDS011;29631;49.168;9.848;2022-11-20T02:02:31;4.53;;;4.10;;
40501;SDS011;29631;49.168;9.848;2022-11-20T02:04:58;4.90;;;4.50;;
40501;SDS011;29631;49.168;9.848;2022-11-20T02:07:31;5.57;;;5.07;;
40501;SDS011;29631;49.168;9.848;2022-11-20T02:09:57;5.88;;;5.38;;
40501;SDS011;29631;49.168;9.848;2022-11-20T02:12:23;5.78;;;4.97;;
40501;SDS011;29631;49.168;9.848;2022-11-20T02:15:08;5.18;;;4.70;;
40501;SDS011;29631;49.168;9.848;2022-11-20T02:17:34;5.45;;;4.95;;
40501;SDS011;29631;49.168;9.848;2022-11-20T02:20:00;5.93;;;5.43;;
40501;SDS011;29631;49.168;9.848;2022-11-20T02:22:28;5.65;;;5.15;;
40501;SDS011;29631;49.168;9.848;2022-11-20T02:25:00;5.43;;;4.95;;
40501;SDS011;29631;49.168;9.848;2022-11-20T02:27:28;5.65;;;5.15;;
40501;SDS011;29631;49.168;9.848;2022-11-20T02:32:28;5.38;;;4.90;;
40501;SDS011;29631;49.168;9.848;2022-11-20T02:37:36;6.20;;;5.60;;
40501;SDS011;29631;49.168;9.848;2022-11-20T02:40:05;6.20;;;5.63;;
40501;SDS011;29631;49.168;9.848;2022-11-20T02:42:32;5.70;;;5.20;;
40501;SDS011;29631;49.168;9.848;2022-11-20T02:44:57;4.88;;;4.47;;
40501;SDS011;29631;49.168;9.848;2022-11-20T02:47:23;5.35;;;4.95;;
40501;SDS011;29631;49.168;9.848;2022-11-20T02:49:49;6.15;;;5.32;;
40501;SDS011;29631;49.168;9.848;2022-11-20T02:52:14;5.95;;;4.95;;
40501;SDS011;29631;49.168;9.848;2022-11-20T02:54:40;5.38;;;4.97;;
40501;SDS011;29631;49.168;9.848;2022-11-20T02:57:06;5.63;;;5.13;;
40501;SDS011;29631;49.168;9.848;2022-11-20T02:59:32;5.82;;;5.32;;
40501;SDS011;29631;49.168;9.848;2022-11-20T03:01:57;6.00;;;5.53;;
40501;SDS011;29631;49.168;9.848;2022-11-20T03:04:23;5.72;;;5.32;;
40501;SDS011;29631;49.168;9.848;2022-11-20T03:06:49;5.65;;;5.22;;
40501;SDS011;29631;49.168;9.848;2022-11-20T03:09:15;5.90;;;5.50;;
40501;SDS011;29631;49.168;9.848;2022-11-20T03:11:40;5.78;;;5.35;;
40501;SDS011;29631;49.168;9.848;2022-11-20T03:14:06;6.82;;;5.15;;
40501;SDS011;29631;49.168;9.848;2022-11-20T03:16:32;5.32;;;4.95;;
40501;SDS011;29631;49.168;9.848;2022-11-20T03:18:58;5.63;;;5.22;;
40501;SDS011;29631;49.168;9.848;2022-11-20T03:21:24;5.97;;;5.50;;
40501;SDS011;29631;49.168;9.848;2022-11-20T03:23:49;5.97;;;5.57;;
40501;SDS011;29631;49.168;9.848;2022-11-20T03:26:25;7.05;;;6.50;;
40501;SDS011;29631;49.168;9.848;2022-11-20T03:28:53;6.50;;;6.10;;
40501;SDS011;29631;49.168;9.848;2022-11-20T03:31:22;7.30;;;6.80;;
40501;SDS011;29631;49.168;9.848;2022-11-20T03:33:51;6.22;;;5.82;;
40501;SDS011;29631;49.168;9.848;2022-11-20T03:36:18;6.95;;;6.35;;
40501;SDS011;29631;49.168;9.848;2022-11-20T03:38:45;6.95;;;6.35;;
40501;SDS011;29631;49.168;9.848;2022-11-20T03:41:12;7.38;;;6.78;;
40501;SDS011;29631;49.168;9.848;2022-11-20T03:43:51;12.95;;;12.05;;
40501;SDS011;29631;49.168;9.848;2022-11-20T03:46:19;7.53;;;7.03;;
40501;SDS011;29631;49.168;9.848;2022-11-20T03:48:45;10.30;;;9.60;;
40501;SDS011;29631;49.168;9.848;2022-11-20T03:51:13;11.52;;;10.73;;
40501;SDS011;29631;49.168;9.848;2022-11-20T03:53:40;14.38;;;13.38;;
40501;SDS011;29631;49.168;9.848;2022-11-20T03:56:08;21.45;;;19.88;;
40501;SDS011;29631;49.168;9.848;2022-11-20T03:58:36;14.88;;;13.77;;
40501;SDS011;29631;49.168;9.848;2022-11-20T04:01:08;12.77;;;11.93;;
40501;SDS011;29631;49.168;9.848;2022-11-20T04:03:40;19.65;;;18.35;;
40501;SDS011;29631;49.168;9.848;2022-11-20T04:06:08;16.90;;;15.77;;
40501;SDS011;29631;49.168;9.848;2022-11-20T04:08:35;11.50;;;10.70;;
40501;SDS011;29631;49.168;9.848;2022-11-20T04:11:11;12.23;;;11.43;;
40501;SDS011;29631;49.168;9.848;2022-11-20T04:13:40;7.38;;;6.88;;
40501;SDS011;29631;49.168;9.848;2022-11-20T04:16:07;5.88;;;5.47;;
40501;SDS011;29631;49.168;9.848;2022-11-20T04:18:35;5.05;;;4.60;;
40501;SDS011;29631;49.168;9.848;2022-11-20T04:21:01;4.97;;;4.60;;
40501;SDS011;29631;49.168;9.848;2022-11-20T04:23:28;5.30;;;4.90;;
40501;SDS011;29631;49.168;9.848;2022-11-20T04:25:53;5.70;;;5.30;;
40501;SDS011;29631;49.168;9.848;2022-11-20T04:28:19;5.10;;;4.80;;
40501;SDS011;29631;49.168;9.848;2022-11-20T04:30:45;5.97;;;5.55;;
40501;SDS011;29631;49.168;9.848;2022-11-20T04:33:11;5.40;;;5.00;;
40501;SDS011;29631;49.168;9.848;2022-11-20T04:35:37;4.93;;;4.60;;
40501;SDS011;29631;49.168;9.848;2022-11-20T04:38:03;4.57;;;4.13;;
40501;SDS011;29631;49.168;9.848;2022-11-20T04:40:29;4.13;;;3.83;;
40501;SDS011;29631;49.168;9.848;2022-11-20T04:42:55;4.75;;;4.22;;
40501;SDS011;29631;49.168;9.848;2022-11-20T04:45:24;4.93;;;4.50;;
40501;SDS011;29631;49.168;9.848;2022-11-20T04:47:50;5.10;;;4.45;;
40501;SDS011;29631;49.168;9.848;2022-11-20T04:50:15;4.80;;;4.30;;
40501;SDS011;29631;49.168;9.848;2022-11-20T04:52:41;4.75;;;4.45;;
40501;SDS011;29631;49.168;9.848;2022-11-20T04:55:07;4.35;;;4.05;;
40501;SDS011;29631;49.168;9.848;2022-11-20T04:57:33;4.43;;;4.13;;
40501;SDS011;29631;49.168;9.848;2022-11-20T04:59:59;4.20;;;3.90;;
40501;SDS011;29631;49.168;9.848;2022-11-20T05:02:25;4.50;;;4.20;;
40501;SDS011;29631;49.168;9.848;2022-11-20T05:04:50;4.43;;;4.10;;
40501;SDS011;29631;49.168;9.848;2022-11-20T05:07:16;4.35;;;4.05;;
40501;SDS011;29631;49.168;9.848;2022-11-20T05:09:42;3.90;;;3.60;;
40501;SDS011;29631;49.168;9.848;2022-11-20T05:12:08;3.92;;;3.63;;
40501;SDS011;29631;49.168;9.848;2022-11-20T05:14:34;3.55;;;3.35;;
40501;SDS011;29631;49.168;9.848;2022-11-20T05:17:00;3.25;;;3.05;;
40501;SDS011;29631;49.168;9.848;2022-11-20T05:19:25;3.65;;;3.45;;
40501;SDS011;29631;49.168;9.848;2022-11-20T05:21:51;4.13;;;3.83;;
40501;SDS011;29631;49.168;9.848;2022-11-20T05:24:17;3.58;;;3.28;;
40501;SDS011;29631;49.168;9.848;2022-11-20T05:26:43;3.10;;;2.90;;
40501;SDS011;29631;49.168;9.848;2022-11-20T05:29:09;3.38;;;3.17;;
40501;SDS011;29631;49.168;9.848;2022-11-20T05:31:38;3.50;;;3.30;;
40501;SDS011;29631;49.168;9.848;2022-11-20T05:34:05;3.63;;;3.08;;
40501;SDS011;29631;49.168;9.848;2022-11-20T05:36:32;3.55;;;3.25;;
40501;SDS011;29631;49.168;9.848;2022-11-20T05:38:58;3.00;;;2.80;;
40501;SDS011;29631;49.168;9.848;2022-11-20T05:41:23;3.30;;;3.10;;
40501;SDS011;29631;49.168;9.848;2022-11-20T05:43:49;3.92;;;3.33;;
40501;SDS011;29631;49.168;9.848;2022-11-20T05:46:17;2.92;;;2.72;;
40501;SDS011;29631;49.168;9.848;2022-11-20T05:48:45;3.42;;;3.22;;
40501;SDS011;29631;49.168;9.848;2022-11-20T05:51:12;3.78;;;3.47;;
40501;SDS011;29631;49.168;9.848;2022-11-20T05:53:41;3.03;;;2.83;;
40501;SDS011;29631;49.168;9.848;2022-11-20T05:56:09;3.05;;;2.85;;
40501;SDS011;29631;49.168;9.848;2022-11-20T05:58:37;2.88;;;2.67;;
40501;SDS011;29631;49.168;9.848;2022-11-20T06:01:11;2.95;;;2.75;;
40501;SDS011;29631;49.168;9.848;2022-11-20T06:03:40;3.20;;;3.00;;
40501;SDS011;29631;49.168;9.848;2022-11-20T06:06:12;3.10;;;2.90;;
40501;SDS011;29631;49.168;9.848;2022-11-20T06:08:39;2.58;;;2.47;;
40501;SDS011;29631;49.168;9.848;2022-11-20T06:11:06;3.17;;;2.97;;
40501;SDS011;29631;49.168;9.848;2022-11-20T06:13:33;3.00;;;2.90;;
40501;SDS011;29631;49.168;9.848;2022-11-20T06:16:00;3.83;;;3.05;;
40501;SDS011;29631;49.168;9.848;2022-11-20T06:18:26;2.83;;;2.63;;
40501;SDS011;29631;49.168;9.848;2022-11-20T06:21:26;2.40;;;2.30;;
40501;SDS011;29631;49.168;9.848;2022-11-20T06:23:46;3.13;;;2.90;;
40501;SDS011;29631;49.168;9.848;2022-11-20T06:26:24;2.90;;;2.70;;
40501;SDS011;29631;49.168;9.848;2022-11-20T06:28:52;2.92;;;2.83;;
40501;SDS011;29631;49.168;9.848;2022-11-20T06:31:20;2.55;;;2.45;;
40501;SDS011;29631;49.168;9.848;2022-11-20T06:33:48;2.58;;;2.38;;
40501;SDS011;29631;49.168;9.848;2022-11-20T06:36:14;3.33;;;3.03;;
40501;SDS011;29631;49.168;9.848;2022-11-20T06:38:42;3.10;;;2.90;;
40501;SDS011;29631;49.168;9.848;2022-11-20T06:41:11;2.45;;;2.35;;
40501;SDS011;29631;49.168;9.848;2022-11-20T06:43:39;2.92;;;2.75;;
40501;SDS011;29631;49.168;9.848;2022-11-20T06:46:05;3.17;;;2.97;;
40501;SDS011;29631;49.168;9.848;2022-11-20T06:48:31;3.30;;;2.90;;
40501;SDS011;29631;49.168;9.848;2022-11-20T06:50:57;3.63;;;3.40;;
40501;SDS011;29631;49.168;9.848;2022-11-20T06:53:24;3.33;;;3.13;;
40501;SDS011;29631;49.168;9.848;2022-11-20T06:55:50;3.10;;;2.90;;
40501;SDS011;29631;49.168;9.848;2022-11-20T06:58:17;2.83;;;2.70;;
40501;SDS011;29631;49.168;9.848;2022-11-20T07:00:43;2.58;;;2.47;;
40501;SDS011;29631;49.168;9.848;2022-11-20T07:03:10;2.75;;;2.65;;
40501;SDS011;29631;49.168;9.848;2022-11-20T07:05:36;2.80;;;2.65;;
40501;SDS011;29631;49.168;9.848;2022-11-20T07:08:03;2.80;;;2.60;;
40501;SDS011;29631;49.168;9.848;2022-11-20T07:10:30;2.47;;;2.38;;
40501;SDS011;29631;49.168;9.848;2022-11-20T07:12:56;2.03;;;1.92;;
40501;SDS011;29631;49.168;9.848;2022-11-20T07:15:23;2.17;;;2.08;;
40501;SDS011;29631;49.168;9.848;2022-11-20T07:17:50;1.90;;;1.80;;
40501;SDS011;29631;49.168;9.848;2022-11-20T07:20:16;2.70;;;2.60;;
40501;SDS011;29631;49.168;9.848;2022-11-20T07:22:41;3.17;;;2.97;;
40501;SDS011;29631;49.168;9.848;2022-11-20T07:25:08;3.72;;;3.42;;
40501;SDS011;29631;49.168;9.848;2022-11-20T07:27:35;2.45;;;2.30;;
40501;SDS011;29631;49.168;9.848;2022-11-20T07:30:02;2.25;;;2.15;;
40501;SDS011;29631;49.168;9.848;2022-11-20T07:32:28;2.40;;;2.30;;
40501;SDS011;29631;49.168;9.848;2022-11-20T07:34:54;2.35;;;2.25;;
40501;SDS011;29631;49.168;9.848;2022-11-20T07:37:20;2.17;;;2.08;;
40501;SDS011;29631;49.168;9.848;2022-11-20T07:39:46;2.10;;;2.00;;
40501;SDS011;29631;49.168;9.848;2022-11-20T07:42:11;2.33;;;2.22;;
40501;SDS011;29631;49.168;9.848;2022-11-20T07:44:37;2.25;;;2.00;;
40501;SDS011;29631;49.168;9.848;2022-11-20T07:47:03;2.00;;;1.90;;
40501;SDS011;29631;49.168;9.848;2022-11-20T07:49:29;2.05;;;1.95;;
40501;SDS011;29631;49.168;9.848;2022-11-20T07:51:55;2.53;;;2.35;;
40501;SDS011;29631;49.168;9.848;2022-11-20T07:54:21;2.13;;;2.03;;
40501;SDS011;29631;49.168;9.848;2022-11-20T07:56:47;2.05;;;1.95;;
40501;SDS011;29631;49.168;9.848;2022-11-20T07:59:14;1.52;;;1.52;;
40501;SDS011;29631;49.168;9.848;2022-11-20T08:01:40;1.95;;;1.85;;
40501;SDS011;29631;49.168;9.848;2022-11-20T08:04:07;2.20;;;2.10;;
40501;SDS011;29631;49.168;9.848;2022-11-20T08:06:35;2.53;;;2.33;;
40501;SDS011;29631;49.168;9.848;2022-11-20T08:09:01;2.15;;;2.05;;
40501;SDS011;29631;49.168;9.848;2022-11-20T08:11:27;2.20;;;2.10;;
40501;SDS011;29631;49.168;9.848;2022-11-20T08:14:12;1.63;;;1.63;;
40501;SDS011;29631;49.168;9.848;2022-11-20T08:16:38;2.30;;;2.20;;
40501;SDS011;29631;49.168;9.848;2022-11-20T08:19:05;2.10;;;2.00;;
40501;SDS011;29631;49.168;9.848;2022-11-20T08:21:32;2.35;;;2.00;;
40501;SDS011;29631;49.168;9.848;2022-11-20T08:23:58;1.80;;;1.70;;
40501;SDS011;29631;49.168;9.848;2022-11-20T08:26:24;1.50;;;1.50;;
40501;SDS011;29631;49.168;9.848;2022-11-20T08:28:57;1.73;;;1.73;;
40501;SDS011;29631;49.168;9.848;2022-11-20T08:31:24;1.85;;;1.75;;
40501;SDS011;29631;49.168;9.848;2022-11-20T08:33:51;1.70;;;1.60;;
40501;SDS011;29631;49.168;9.848;2022-11-20T08:36:18;1.65;;;1.55;;
40501;SDS011;29631;49.168;9.848;2022-11-20T08:38:52;1.60;;;1.60;;
40501;SDS011;29631;49.168;9.848;2022-11-20T08:41:20;1.92;;;1.85;;
40501;SDS011;29631;49.168;9.848;2022-11-20T08:43:57;1.80;;;1.70;;
40501;SDS011;29631;49.168;9.848;2022-11-20T08:46:27;2.60;;;2.25;;
40501;SDS011;29631;49.168;9.848;2022-11-20T08:48:58;3.30;;;3.20;;
40501;SDS011;29631;49.168;9.848;2022-11-20T08:51:24;2.17;;;2.08;;
40501;SDS011;29631;49.168;9.848;2022-11-20T08:53:49;2.10;;;2.00;;
40501;SDS011;29631;49.168;9.848;2022-11-20T08:56:15;1.75;;;1.75;;
40501;SDS011;29631;49.168;9.848;2022-11-20T08:58:42;2.00;;;1.90;;
40501;SDS011;29631;49.168;9.848;2022-11-20T09:01:08;2.00;;;1.90;;
40501;SDS011;29631;49.168;9.848;2022-11-20T09:03:34;1.90;;;1.90;;
40501;SDS011;29631;49.168;9.848;2022-11-20T09:06:01;1.88;;;1.77;;
40501;SDS011;29631;49.168;9.848;2022-11-20T09:08:29;1.85;;;1.75;;
40501;SDS011;29631;49.168;9.848;2022-11-20T09:10:56;1.30;;;1.30;;
40501;SDS011;29631;49.168;9.848;2022-11-20T09:13:24;10.80;;;9.55;;
40501;SDS011;29631;49.168;9.848;2022-11-20T09:15:55;54.78;;;40.75;;
40501;SDS011;29631;49.168;9.848;2022-11-20T09:18:23;30.13;;;27.23;;
40501;SDS011;29631;49.168;9.848;2022-11-20T09:20:51;13.85;;;12.75;;
40501;SDS011;29631;49.168;9.848;2022-11-20T09:23:21;6.05;;;5.65;;
40501;SDS011;29631;49.168;9.848;2022-11-20T09:25:47;4.22;;;3.95;;
40501;SDS011;29631;49.168;9.848;2022-11-20T09:28:13;2.40;;;2.30;;
40501;SDS011;29631;49.168;9.848;2022-11-20T09:30:39;2.20;;;1.75;;
40501;SDS011;29631;49.168;9.848;2022-11-20T09:33:05;1.60;;;1.60;;
40501;SDS011;29631;49.168;9.848;2022-11-20T09:35:31;2.53;;;2.33;;
40501;SDS011;29631;49.168;9.848;2022-11-20T09:37:58;2.10;;;1.52;;
40501;SDS011;29631;49.168;9.848;2022-11-20T09:40:28;1.20;;;1.20;;
40501;SDS011;29631;49.168;9.848;2022-11-20T09:46:02;1.15;;;1.15;;
40501;SDS011;29631;49.168;9.848;2022-11-20T09:52:01;2.45;;;2.25;;
40501;SDS011;29631;49.168;9.848;2022-11-20T09:55:02;1.75;;;1.65;;
40501;SDS011;29631;49.168;9.848;2022-11-20T09:57:37;1.23;;;1.13;;
40501;SDS011;29631;49.168;9.848;2022-11-20T10:00:09;1.30;;;1.30;;
40501;SDS011;29631;49.168;9.848;2022-11-20T10:02:52;1.27;;;1.27;;
40501;SDS011;29631;49.168;9.848;2022-11-20T10:05:32;1.50;;;1.50;;
40501;SDS011;29631;49.168;9.848;2022-11-20T10:11:00;1.60;;;1.60;;
40501;SDS011;29631;49.168;9.848;2022-11-20T10:14:13;1.52;;;1.52;;
40501;SDS011;29631;49.168;9.848;2022-11-20T10:22:52;0.95;;;0.95;;
40501;SDS011;29631;49.168;9.848;2022-11-20T10:26:03;0.90;;;0.90;;
40501;SDS011;29631;49.168;9.848;2022-11-20T10:29:01;0.90;;;0.90;;
40501;SDS011;29631;49.168;9.848;2022-11-20T10:31:46;0.75;;;0.75;;
40501;SDS011;29631;49.168;9.848;2022-11-20T10:34:33;1.52;;;1.38;;
40501;SDS011;29631;49.168;9.848;2022-11-20T10:37:35;1.05;;;1.05;;
40501;SDS011;29631;49.168;9.848;2022-11-20T10:42:55;1.20;;;1.20;;
40501;SDS011;29631;49.168;9.848;2022-11-20T10:45:38;2.33;;;2.22;;
40501;SDS011;29631;49.168;9.848;2022-11-20T10:48:35;1.58;;;1.55;;
40501;SDS011;29631;49.168;9.848;2022-11-20T10:51:29;1.95;;;1.85;;
40501;SDS011;29631;49.168;9.848;2022-11-20T10:57:51;1.50;;;1.40;;
40501;SDS011;29631;49.168;9.848;2022-11-20T11:00:35;2.03;;;1.50;;
40501;SDS011;29631;49.168;9.848;2022-11-20T11:03:01;2.00;;;1.90;;
40501;SDS011;29631;49.168;9.848;2022-11-20T11:08:09;8.38;;;7.53;;
40501;SDS011;29631;49.168;9.848;2022-11-20T11:13:28;7.05;;;6.55;;
40501;SDS011;29631;49.168;9.848;2022-11-20T11:15:55;4.18;;;3.97;;
40501;SDS011;29631;49.168;9.848;2022-11-20T11:18:26;3.05;;;2.92;;
40501;SDS011;29631;49.168;9.848;2022-11-20T11:20:57;2.67;;;2.47;;
40501;SDS011;29631;49.168;9.848;2022-11-20T11:23:36;3.17;;;3.05;;
40501;SDS011;29631;49.168;9.848;2022-11-20T11:26:06;2.03;;;2.03;;
40501;SDS011;29631;49.168;9.848;2022-11-20T11:28:59;1.98;;;1.88;;
40501;SDS011;29631;49.168;9.848;2022-11-20T11:31:30;1.92;;;1.83;;
40501;SDS011;29631;49.168;9.848;2022-11-20T11:34:07;1.65;;;1.65;;
40501;SDS011;29631;49.168;9.848;2022-11-20T11:36:37;1.70;;;1.63;;
40501;SDS011;29631;49.168;9.848;2022-11-20T11:39:04;1.73;;;1.73;;
40501;SDS011;29631;49.168;9.848;2022-11-20T11:41:37;1.42;;;1.42;;
40501;SDS011;29631;49.168;9.848;2022-11-20T11:44:16;1.80;;;1.70;;
40501;SDS011;29631;49.168;9.848;2022-11-20T11:47:29;5.95;;;4.70;;
40501;SDS011;29631;49.168;9.848;2022-11-20T11:50:20;2.78;;;2.58;;
40501;SDS011;29631;49.168;9.848;2022-11-20T11:55:54;5.82;;;5.20;;
40501;SDS011;29631;49.168;9.848;2022-11-20T11:58:44;7.07;;;5.28;;
40501;SDS011;29631;49.168;9.848;2022-11-20T12:04:00;5.53;;;4.45;;
40501;SDS011;29631;49.168;9.848;2022-11-20T12:06:51;2.60;;;2.40;;
40501;SDS011;29631;49.168;9.848;2022-11-20T12:09:27;2.25;;;1.92;;
40501;SDS011;29631;49.168;9.848;2022-11-20T12:12:18;2.15;;;2.05;;
40501;SDS011;29631;49.168;9.848;2022-11-20T12:14:55;2.22;;;2.13;;
40501;SDS011;29631;49.168;9.848;2022-11-20T12:17:22;2.10;;;1.60;;
40501;SDS011;29631;49.168;9.848;2022-11-20T12:19:49;1.40;;;1.40;;
40501;SDS011;29631;49.168;9.848;2022-11-20T12:25:11;1.40;;;1.30;;
40501;SDS011;29631;49.168;9.848;2022-11-20T12:30:41;1.08;;;1.08;;
40501;SDS011;29631;49.168;9.848;2022-11-20T12:36:31;0.93;;;0.93;;
40501;SDS011;29631;49.168;9.848;2022-11-20T12:39:21;1.40;;;1.30;;
40501;SDS011;29631;49.168;9.848;2022-11-20T12:42:05;1.50;;;1.40;;
40501;SDS011;29631;49.168;9.848;2022-11-20T12:45:10;1.30;;;1.30;;
40501;SDS011;29631;49.168;9.848;2022-11-20T12:51:49;1.48;;;1.40;;
40501;SDS011;29631;49.168;9.848;2022-11-20T12:54:29;2.15;;;1.60;;
40501;SDS011;29631;49.168;9.848;2022-11-20T12:57:25;2.42;;;2.25;;
40501;SDS011;29631;49.168;9.848;2022-11-20T13:00:24;4.72;;;4.25;;
40501;SDS011;29631;49.168;9.848;2022-11-20T13:03:06;2.60;;;2.40;;
40501;SDS011;29631;49.168;9.848;2022-11-20T13:08:39;2.17;;;1.80;;
40501;SDS011;29631;49.168;9.848;2022-11-20T13:19:35;2.20;;;2.10;;
40501;SDS011;29631;49.168;9.848;2022-11-20T13:22:01;1.75;;;1.60;;
40501;SDS011;29631;49.168;9.848;2022-11-20T13:24:28;4.97;;;4.45;;
40501;SDS011;29631;49.168;9.848;2022-11-20T13:26:59;6.53;;;4.93;;
40501;SDS011;29631;49.168;9.848;2022-11-20T13:29:33;3.47;;;3.22;;
40501;SDS011;29631;49.168;9.848;2022-11-20T13:34:55;2.08;;;1.90;;
40501;SDS011;29631;49.168;9.848;2022-11-20T13:37:43;2.08;;;1.98;;
40501;SDS011;29631;49.168;9.848;2022-11-20T13:42:38;1.80;;;1.70;;
40501;SDS011;29631;49.168;9.848;2022-11-20T13:45:20;1.92;;;1.83;;
40501;SDS011;29631;49.168;9.848;2022-11-20T13:47:55;1.38;;;1.27;;
40501;SDS011;29631;49.168;9.848;2022-11-20T13:53:04;1.90;;;1.80;;
40501;SDS011;29631;49.168;9.848;2022-11-20T13:56:14;1.58;;;1.42;;
40501;SDS011;29631;49.168;9.848;2022-11-20T14:01:46;1.83;;;1.73;;
40501;SDS011;29631;49.168;9.848;2022-11-20T14:04:18;1.55;;;1.45;;
40501;SDS011;29631;49.168;9.848;2022-11-20T14:06:54;1.60;;;1.50;;
40501;SDS011;29631;49.168;9.848;2022-11-20T14:11:55;1.73;;;1.45;;
40501;SDS011;29631;49.168;9.848;2022-11-20T14:14:23;1.48;;;1.30;;
40501;SDS011;29631;49.168;9.848;2022-11-20T14:16:51;2.53;;;1.35;;
40501;SDS011;29631;49.168;9.848;2022-11-20T14:19:29;2.88;;;2.17;;
40501;SDS011;29631;49.168;9.848;2022-11-20T14:22:16;1.58;;;1.48;;
40501;SDS011;29631;49.168;9.848;2022-11-20T14:30:29;1.20;;;1.20;;
40501;SDS011;29631;49.168;9.848;2022-11-20T14:33:13;1.63;;;1.40;;
40501;SDS011;29631;49.168;9.848;2022-11-20T14:35:50;2.72;;;2.00;;
40501;SDS011;29631;49.168;9.848;2022-11-20T14:38:25;1.90;;;1.75;;
40501;SDS011;29631;49.168;9.848;2022-11-20T14:40:53;4.55;;;3.08;;
40501;SDS011;29631;49.168;9.848;2022-11-20T14:43:30;10.32;;;6.70;;
40501;SDS011;29631;49.168;9.848;2022-11-20T14:48:49;2.40;;;2.20;;
40501;SDS011;29631;49.168;9.848;2022-11-20T14:51:37;1.90;;;1.80;;
40501;SDS011;29631;49.168;9.848;2022-11-20T14:54:17;1.83;;;1.67;;
40501;SDS011;29631;49.168;9.848;2022-11-20T14:56:57;1.23;;;1.15;;
40501;SDS011;29631;49.168;9.848;2022-11-20T14:59:27;1.20;;;1.08;;
40501;SDS011;29631;49.168;9.848;2022-11-20T15:01:56;1.85;;;1.20;;
40501;SDS011;29631;49.168;9.848;2022-11-20T15:04:29;1.27;;;1.20;;
40501;SDS011;29631;49.168;9.848;2022-11-20T15:06:56;2.42;;;1.40;;
40501;SDS011;29631;49.168;9.848;2022-11-20T15:09:23;1.67;;;1.58;;
40501;SDS011;29631;49.168;9.848;2022-11-20T15:11:57;2.10;;;1.40;;
40501;SDS011;29631;49.168;9.848;2022-11-20T15:14:28;1.10;;;1.00;;
40501;SDS011;29631;49.168;9.848;2022-11-20T15:16:57;2.00;;;1.38;;
40501;SDS011;29631;49.168;9.848;2022-11-20T15:19:24;1.52;;;1.52;;
40501;SDS011;29631;49.168;9.848;2022-11-20T15:21:51;1.95;;;1.48;;
40501;SDS011;29631;49.168;9.848;2022-11-20T15:24:18;1.38;;;1.27;;
40501;SDS011;29631;49.168;9.848;2022-11-20T15:26:43;3.97;;;2.28;;
40501;SDS011;29631;49.168;9.848;2022-11-20T15:29:10;4.63;;;4.20;;
40501;SDS011;29631;49.168;9.848;2022-11-20T15:31:39;3.65;;;3.33;;
40501;SDS011;29631;49.168;9.848;2022-11-20T15:34:13;2.22;;;2.13;;
40501;SDS011;29631;49.168;9.848;2022-11-20T15:36:41;1.98;;;1.88;;
40501;SDS011;29631;49.168;9.848;2022-11-20T15:39:08;2.10;;;2.00;;
40501;SDS011;29631;49.168;9.848;2022-11-20T15:41:35;1.55;;;1.45;;
40501;SDS011;29631;49.168;9.848;2022-11-20T15:44:02;1.60;;;1.50;;
40501;SDS011;29631;49.168;9.848;2022-11-20T15:46:30;1.52;;;1.20;;
40501;SDS011;29631;49.168;9.848;2022-11-20T15:49:03;4.35;;;3.95;;
40501;SDS011;29631;49.168;9.848;2022-11-20T15:51:31;2.30;;;2.20;;
40501;SDS011;29631;49.168;9.848;2022-11-20T15:54:12;2.03;;;1.85;;
40501;SDS011;29631;49.168;9.848;2022-11-20T15:56:47;4.05;;;3.38;;
40501;SDS011;29631;49.168;9.848;2022-11-20T15:59:14;3.05;;;2.75;;
40501;SDS011;29631;49.168;9.848;2022-11-20T16:01:41;2.88;;;2.22;;
40501;SDS011;29631;49.168;9.848;2022-11-20T16:04:11;3.00;;;2.60;;
40501;SDS011;29631;49.168;9.848;2022-11-20T16:06:39;3.13;;;2.72;;
40501;SDS011;29631;49.168;9.848;2022-11-20T16:09:05;3.00;;;2.80;;
40501;SDS011;29631;49.168;9.848;2022-11-20T16:11:31;3.00;;;2.70;;
40501;SDS011;29631;49.168;9.848;2022-11-20T16:13:57;2.92;;;2.05;;
40501;SDS011;29631;49.168;9.848;2022-11-20T16:16:41;2.33;;;2.15;;
40501;SDS011;29631;49.168;9.848;2022-11-20T16:19:11;2.95;;;2.28;;
40501;SDS011;29631;49.168;9.848;2022-11-20T16:21:37;1.40;;;1.40;;
40501;SDS011;29631;49.168;9.848;2022-11-20T16:24:06;1.50;;;1.40;;
40501;SDS011;29631;49.168;9.848;2022-11-20T16:26:34;1.63;;;1.17;;
40501;SDS011;29631;49.168;9.848;2022-11-20T16:29:01;1.23;;;1.23;;
40501;SDS011;29631;49.168;9.848;2022-11-20T16:31:30;2.63;;;2.20;;
40501;SDS011;29631;49.168;9.848;2022-11-20T16:33:58;2.20;;;1.52;;